createdAt,value
2022-10-10T00:00:20.160Z,14.00
2022-10-10T00:03:07.074Z,14.00
2022-10-10T00:05:52.325Z,14.00
2022-10-10T00:08:38.942Z,14.10
2022-10-10T00:11:24.939Z,13.80
2022-10-10T00:14:10.510Z,13.80
2022-10-10T00:16:56.162Z,14.30
2022-10-10T00:19:41.911Z,13.80
2022-10-10T00:22:27.418Z,13.80
2022-10-10T00:25:13.961Z,14.00
2022-10-10T00:28:02.266Z,15.00
2022-10-10T00:30:47.893Z,14.20
2022-10-10T00:33:33.298Z,13.90
2022-10-10T00:36:20.658Z,13.90
2022-10-10T00:39:06.039Z,14.00
2022-10-10T00:41:51.561Z,14.00
2022-10-10T00:44:37.311Z,14.00
2022-10-10T00:47:22.945Z,15.20
2022-10-10T00:50:08.228Z,14.10
2022-10-10T00:52:54.208Z,14.20
2022-10-10T00:55:39.767Z,14.20
2022-10-10T00:58:25.616Z,14.40
2022-10-10T01:01:11.489Z,14.10
2022-10-10T01:04:01.741Z,14.10
2022-10-10T01:06:47.201Z,14.20
2022-10-10T01:09:35.435Z,14.40
2022-10-10T01:12:40.666Z,14.10
2022-10-10T01:15:29.351Z,14.10
2022-10-10T01:18:17.314Z,13.80
2022-10-10T01:21:27.507Z,13.70
2022-10-10T01:24:26.333Z,13.80
2022-10-10T01:27:34.417Z,13.90
2022-10-10T01:30:23.597Z,14.30
2022-10-10T01:33:14.660Z,13.90
2022-10-10T01:36:21.081Z,15.00
2022-10-10T01:39:31.859Z,13.90
2022-10-10T01:42:28.453Z,13.90
2022-10-10T01:45:13.896Z,14.00
2022-10-10T01:48:03.612Z,14.00
2022-10-10T01:50:59.763Z,13.90
2022-10-10T01:54:00.746Z,14.40
2022-10-10T01:57:00.086Z,13.90
2022-10-10T02:00:06.127Z,13.80
2022-10-10T02:02:59.643Z,13.80
2022-10-10T02:06:03.703Z,13.80
2022-10-10T02:08:58.456Z,13.70
2022-10-10T02:11:44.906Z,13.90
2022-10-10T02:14:48.448Z,14.40
2022-10-10T02:17:36.334Z,13.80
2022-10-10T02:20:25.684Z,13.70
2022-10-10T02:23:14.875Z,13.70
2022-10-10T02:26:01.125Z,13.70
2022-10-10T02:28:53.072Z,13.60
2022-10-10T02:31:57.098Z,13.40
2022-10-10T02:34:50.446Z,13.50
2022-10-10T02:37:38.830Z,13.80
2022-10-10T02:40:28.166Z,14.70
2022-10-10T02:43:15.293Z,14.20
2022-10-10T02:46:07.176Z,13.60
2022-10-10T02:48:52.919Z,13.60
2022-10-10T02:51:39.418Z,13.60
2022-10-10T02:54:25.411Z,13.50
2022-10-10T02:57:10.812Z,13.50
2022-10-10T02:59:56.228Z,13.80
2022-10-10T03:02:42.085Z,13.70
2022-10-10T03:05:27.706Z,14.40
2022-10-10T03:08:13.312Z,13.90
2022-10-10T03:11:01.213Z,14.80
2022-10-10T03:13:46.602Z,14.70
2022-10-10T03:16:31.995Z,13.90
2022-10-10T03:19:17.497Z,14.20
2022-10-10T03:22:03.385Z,13.90
2022-10-10T03:24:48.618Z,14.10
2022-10-10T03:27:34.181Z,13.90
2022-10-10T03:30:19.759Z,14.60
2022-10-10T03:33:05.951Z,13.90
2022-10-10T03:35:51.585Z,13.90
2022-10-10T03:42:37.272Z,13.80
2022-10-10T03:45:23.384Z,14.00
2022-10-10T03:48:08.807Z,14.40
2022-10-10T03:50:54.540Z,14.70
2022-10-10T03:53:39.907Z,13.70
2022-10-10T03:56:25.082Z,13.90
2022-10-10T03:59:10.637Z,15.80
2022-10-10T04:01:55.915Z,14.20
2022-10-10T04:04:41.461Z,13.50
2022-10-10T04:07:27.209Z,14.10
2022-10-10T04:10:12.922Z,13.50
2022-10-10T04:12:58.892Z,13.70
2022-10-10T04:15:44.610Z,13.60
2022-10-10T04:18:30.259Z,13.60
2022-10-10T04:21:15.885Z,13.70
2022-10-10T04:24:01.423Z,13.60
2022-10-10T04:26:46.555Z,13.50
2022-10-10T04:29:32.152Z,13.50
2022-10-10T04:32:17.941Z,14.30
2022-10-10T04:35:04.067Z,13.40
2022-10-10T04:37:49.441Z,13.50
2022-10-10T04:40:36.857Z,13.50
2022-10-10T04:43:22.397Z,13.40
2022-10-10T04:46:08.065Z,14.60
2022-10-10T04:48:53.356Z,13.20
2022-10-10T04:51:38.858Z,13.20
2022-10-10T04:54:24.426Z,13.20
2022-10-10T04:57:09.739Z,13.50
2022-10-10T04:59:55.436Z,13.50
2022-10-10T05:02:40.912Z,13.60
2022-10-10T05:05:26.584Z,13.80
2022-10-10T05:08:11.843Z,13.80
2022-10-10T05:10:57.310Z,13.90
2022-10-10T05:13:42.849Z,14.00
2022-10-10T05:16:28.674Z,13.90
2022-10-10T05:19:14.121Z,14.50
2022-10-10T05:21:59.398Z,13.90
2022-10-10T05:24:44.641Z,14.40
2022-10-10T05:27:30.178Z,14.20
2022-10-10T05:30:15.748Z,14.70
2022-10-10T05:33:01.183Z,13.90
2022-10-10T05:35:46.790Z,13.80
2022-10-10T05:38:32.532Z,13.70
2022-10-10T05:41:17.823Z,13.80
2022-10-10T05:44:03.413Z,13.80
2022-10-10T05:46:48.968Z,14.60
2022-10-10T05:49:34.500Z,14.10
2022-10-10T05:52:20.138Z,13.70
2022-10-10T05:55:05.904Z,14.10
2022-10-10T05:57:51.459Z,13.70
2022-10-10T06:00:37.105Z,13.70
2022-10-10T06:03:22.478Z,14.70
2022-10-10T06:06:07.955Z,13.90
2022-10-10T06:08:53.669Z,13.90
2022-10-10T06:11:39.300Z,13.80
2022-10-10T06:14:24.880Z,13.90
2022-10-10T06:17:10.409Z,14.10
2022-10-10T06:19:56.112Z,14.80
2022-10-10T06:22:41.583Z,14.20
2022-10-10T06:25:39.924Z,14.10
2022-10-10T06:28:26.176Z,13.00
2022-10-10T06:31:13.359Z,14.20
2022-10-10T06:33:59.161Z,14.40
2022-10-10T06:36:44.792Z,14.60
2022-10-10T06:39:30.374Z,14.80
2022-10-10T06:42:15.796Z,14.70
2022-10-10T06:45:01.337Z,14.60
2022-10-10T06:47:46.890Z,14.90
2022-10-10T06:50:32.309Z,16.40
2022-10-10T06:53:18.022Z,15.90
2022-10-10T06:56:03.998Z,14.90
2022-10-10T06:58:49.468Z,14.80
2022-10-10T07:01:34.920Z,15.00
2022-10-10T07:04:20.218Z,15.10
2022-10-10T07:07:05.476Z,15.10
2022-10-10T07:09:51.110Z,15.00
2022-10-10T07:12:42.097Z,15.20
2022-10-10T07:15:29.729Z,15.20
2022-10-10T07:18:16.791Z,16.40
2022-10-10T07:21:02.446Z,15.80
2022-10-10T07:23:47.833Z,15.80
2022-10-10T07:26:38.184Z,16.30
2022-10-10T07:29:24.630Z,16.10
2022-10-10T07:32:09.949Z,16.20
2022-10-10T07:34:58.354Z,15.90
2022-10-10T07:37:45.386Z,16.30
2022-10-10T07:40:30.585Z,16.00
2022-10-10T07:43:16.009Z,16.00
2022-10-10T07:46:01.655Z,16.10
2022-10-10T07:48:48.758Z,17.40
2022-10-10T07:51:34.468Z,16.40
2022-10-10T07:54:19.714Z,16.40
2022-10-10T07:57:05.559Z,16.40
2022-10-10T07:59:50.836Z,16.50
2022-10-10T08:02:36.112Z,16.40
2022-10-10T08:05:21.596Z,16.60
2022-10-10T08:08:07.999Z,16.60
2022-10-10T08:10:53.383Z,16.70
2022-10-10T08:13:40.231Z,16.80
2022-10-10T08:16:25.992Z,17.20
2022-10-10T08:19:11.385Z,16.80
2022-10-10T08:21:56.657Z,16.40
2022-10-10T08:24:42.046Z,16.50
2022-10-10T08:27:27.711Z,16.90
2022-10-10T08:30:13.344Z,16.90
2022-10-10T08:32:59.014Z,16.50
2022-10-10T08:35:44.230Z,16.60
2022-10-10T08:38:29.873Z,16.60
2022-10-10T08:41:42.631Z,16.60
2022-10-10T08:44:42.681Z,17.10
2022-10-10T08:47:39.445Z,17.50
2022-10-10T08:50:31.065Z,17.50
2022-10-10T08:53:27.679Z,18.00
2022-10-10T08:56:18.436Z,17.80
2022-10-10T08:59:26.619Z,17.70
2022-10-10T09:02:53.174Z,18.10
2022-10-10T09:05:41.897Z,19.00
2022-10-10T09:08:39.345Z,19.60
2022-10-10T09:11:46.078Z,19.10
2022-10-10T09:14:31.557Z,19.70
2022-10-10T09:17:49.443Z,20.10
2022-10-10T09:21:02.099Z,19.70
2022-10-10T09:23:52.035Z,19.20
2022-10-10T09:26:50.799Z,18.90
2022-10-10T09:29:39.901Z,19.10
2022-10-10T09:32:39.411Z,19.10
2022-10-10T09:35:28.049Z,19.40
2022-10-10T09:38:44.182Z,19.90
2022-10-10T09:41:43.577Z,20.50
2022-10-10T09:44:29.470Z,20.70
2022-10-10T09:47:17.022Z,20.50
2022-10-10T09:52:56.333Z,19.40
2022-10-10T09:55:42.535Z,19.50
2022-10-10T09:58:39.689Z,19.80
2022-10-10T10:01:29.112Z,20.10
2022-10-10T10:04:28.658Z,20.30
2022-10-10T10:07:17.902Z,20.30
2022-10-10T10:10:20.540Z,20.40
2022-10-10T10:13:14.108Z,21.00
2022-10-10T10:16:10.123Z,21.10
2022-10-10T10:18:55.678Z,21.30
2022-10-10T10:21:50.516Z,21.30
2022-10-10T10:24:37.120Z,20.90
2022-10-10T10:27:25.829Z,20.50
2022-10-10T10:30:24.765Z,20.60
2022-10-10T10:33:18.924Z,20.40
2022-10-10T10:36:24.056Z,20.80
2022-10-10T10:39:28.839Z,22.10
2022-10-10T10:42:23.519Z,22.40
2022-10-10T10:45:15.671Z,22.60
2022-10-10T10:48:25.119Z,22.60
2022-10-10T10:51:37.954Z,23.90
2022-10-10T10:54:49.333Z,22.10
2022-10-10T11:01:20.991Z,21.30
2022-10-10T11:05:25.126Z,21.60
2022-10-10T11:08:22.131Z,22.00
2022-10-10T11:11:19.589Z,22.70
2022-10-10T11:14:23.595Z,22.90
2022-10-10T11:17:37.856Z,22.80
2022-10-10T11:20:28.866Z,22.60
2022-10-10T11:23:33.922Z,22.80
2022-10-10T11:26:42.125Z,23.80
2022-10-10T11:29:34.371Z,24.10
2022-10-10T11:35:25.840Z,24.00
2022-10-10T11:38:15.470Z,23.80
2022-10-10T11:41:15.876Z,23.10
2022-10-10T11:44:23.828Z,23.00
2022-10-10T11:47:14.953Z,22.80
2022-10-10T11:50:28.224Z,22.80
2022-10-10T11:53:22.416Z,23.40
2022-10-10T11:56:30.276Z,23.90
2022-10-10T11:59:38.586Z,23.60
2022-10-10T12:02:32.671Z,23.80
2022-10-10T12:05:28.246Z,24.50
2022-10-10T12:08:33.647Z,24.70
2022-10-10T12:11:28.281Z,24.70
2022-10-10T12:14:17.712Z,24.50
2022-10-10T12:17:03.280Z,24.10
2022-10-10T12:19:51.115Z,25.10
2022-10-10T12:22:37.006Z,25.50
2022-10-10T12:25:42.342Z,24.50
2022-10-10T12:29:09.065Z,25.30
2022-10-10T12:32:13.592Z,25.70
2022-10-10T12:35:01.165Z,25.10
2022-10-10T12:38:05.931Z,25.60
2022-10-10T12:40:57.177Z,25.80
2022-10-10T12:43:51.369Z,26.60
2022-10-10T12:46:36.984Z,27.30
2022-10-10T12:49:24.753Z,27.10
2022-10-10T12:52:32.606Z,26.50
2022-10-10T12:55:30.508Z,25.90
2022-10-10T12:58:33.013Z,25.40
2022-10-10T13:01:27.588Z,25.60
2022-10-10T13:04:17.436Z,26.00
2022-10-10T13:07:04.442Z,25.60
2022-10-10T13:09:52.919Z,25.60
2022-10-10T13:12:38.377Z,26.10
2022-10-10T13:15:23.819Z,26.30
2022-10-10T13:18:09.247Z,25.90
2022-10-10T13:20:56.311Z,25.50
2022-10-10T13:26:53.677Z,26.60
2022-10-10T13:29:41.348Z,26.20
2022-10-10T13:32:35.174Z,26.40
2022-10-10T13:35:23.944Z,26.70
2022-10-10T13:38:11.491Z,26.40
2022-10-10T13:40:57.172Z,26.10
2022-10-10T13:43:42.705Z,25.80
2022-10-10T13:46:33.738Z,26.30
2022-10-10T13:49:28.185Z,27.00
2022-10-10T13:52:23.772Z,27.40
2022-10-10T13:55:26.148Z,27.20
2022-10-10T13:58:11.626Z,26.60
2022-10-10T14:01:06.294Z,26.30
2022-10-10T14:03:53.798Z,26.70
2022-10-10T14:06:50.710Z,27.30
2022-10-10T14:09:42.597Z,27.40
2022-10-10T14:12:44.069Z,27.50
2022-10-10T14:15:41.755Z,27.40
2022-10-10T14:18:27.272Z,26.60
2022-10-10T14:21:13.557Z,26.50
2022-10-10T14:23:58.857Z,27.40
2022-10-10T14:26:44.477Z,28.10
2022-10-10T14:29:29.792Z,27.60
2022-10-10T14:32:16.205Z,27.50
2022-10-10T14:35:01.870Z,27.70
2022-10-10T14:37:47.532Z,27.90
2022-10-10T14:40:35.293Z,27.20
2022-10-10T14:43:22.620Z,27.00
2022-10-10T14:46:17.504Z,26.10
2022-10-10T14:49:03.318Z,26.00
2022-10-10T14:51:48.956Z,26.00
2022-10-10T14:54:34.539Z,26.70
2022-10-10T14:57:22.284Z,27.40
2022-10-10T15:00:13.721Z,27.90
2022-10-10T15:02:59.018Z,27.80
2022-10-10T15:05:44.538Z,27.00
2022-10-10T15:08:30.214Z,26.00
2022-10-10T15:11:17.433Z,25.70
2022-10-10T15:14:03.120Z,25.30
2022-10-10T15:16:48.485Z,25.50
2022-10-10T15:19:33.886Z,26.50
2022-10-10T15:22:19.905Z,26.10
2022-10-10T15:25:06.676Z,26.00
2022-10-10T15:27:52.172Z,25.00
2022-10-10T15:30:42.920Z,24.60
2022-10-10T15:33:28.642Z,24.10
2022-10-10T15:36:18.923Z,23.70
2022-10-10T15:39:04.399Z,23.40
2022-10-10T15:41:50.057Z,23.00
2022-10-10T15:44:35.561Z,22.80
2022-10-10T15:47:21.308Z,22.60
2022-10-10T15:50:08.696Z,22.50
2022-10-10T15:52:54.069Z,22.40
2022-10-10T15:55:44.034Z,22.20
2022-10-10T15:58:29.699Z,22.30
2022-10-10T16:01:17.856Z,22.20
2022-10-10T16:04:04.152Z,22.40
2022-10-10T16:06:59.327Z,22.30
2022-10-10T16:09:56.140Z,22.30
2022-10-10T16:12:41.420Z,23.00
2022-10-10T16:15:26.894Z,22.30
2022-10-10T16:18:12.384Z,21.90
2022-10-10T16:20:58.366Z,21.90
2022-10-10T16:23:44.055Z,21.80
2022-10-10T16:26:33.106Z,21.70
2022-10-10T16:29:18.758Z,21.50
2022-10-10T16:32:04.185Z,21.50
2022-10-10T16:34:49.421Z,21.10
2022-10-10T16:37:35.034Z,21.00
2022-10-10T16:40:20.451Z,21.30
2022-10-10T16:43:06.168Z,20.50
2022-10-10T16:45:51.705Z,20.50
2022-10-10T16:48:39.556Z,20.40
2022-10-10T16:51:27.648Z,20.30
2022-10-10T16:54:12.926Z,20.10
2022-10-10T16:56:58.468Z,19.90
2022-10-10T16:59:43.935Z,19.80
2022-10-10T17:02:29.382Z,19.70
2022-10-10T17:05:14.962Z,20.20
2022-10-10T17:08:00.398Z,19.60
2022-10-10T17:10:45.880Z,19.60
2022-10-10T17:13:31.764Z,19.50
2022-10-10T17:16:59.859Z,19.40
2022-10-10T17:19:28.582Z,19.40
2022-10-10T17:22:13.763Z,19.40
2022-10-10T17:24:59.382Z,19.10
2022-10-10T17:27:44.891Z,19.10
2022-10-10T17:30:30.423Z,20.20
2022-10-10T17:33:18.880Z,18.80
2022-10-10T17:36:10.092Z,18.80
2022-10-10T17:39:00.423Z,18.80
2022-10-10T17:41:49.162Z,19.10
2022-10-10T17:44:41.929Z,18.60
2022-10-10T17:47:28.773Z,18.40
2022-10-10T17:50:14.334Z,18.30
2022-10-10T17:52:59.877Z,18.30
2022-10-10T17:55:45.388Z,18.20
2022-10-10T17:58:31.124Z,18.30
2022-10-10T18:01:18.136Z,17.90
2022-10-10T18:04:03.972Z,17.90
2022-10-10T18:06:49.593Z,17.80
2022-10-10T18:09:34.991Z,17.80
2022-10-10T18:12:20.569Z,17.70
2022-10-10T18:15:06.411Z,17.70
2022-10-10T18:17:51.704Z,17.70
2022-10-10T18:20:38.458Z,17.80
2022-10-10T18:23:28.067Z,17.60
2022-10-10T18:26:19.397Z,17.60
2022-10-10T18:29:04.817Z,17.40
2022-10-10T18:31:50.317Z,17.30
2022-10-10T18:34:35.843Z,17.30
2022-10-10T18:37:21.405Z,17.00
2022-10-10T18:40:07.571Z,16.90
2022-10-10T18:42:53.031Z,17.00
2022-10-10T18:45:38.441Z,17.90
2022-10-10T18:48:23.634Z,16.80
2022-10-10T18:51:15.184Z,16.70
2022-10-10T18:54:04.264Z,16.70
2022-10-10T18:56:49.921Z,16.70
2022-10-10T18:59:35.288Z,16.70
2022-10-10T19:02:20.510Z,16.60
2022-10-10T19:05:06.112Z,16.60
2022-10-10T19:07:51.285Z,16.60
2022-10-10T19:10:43.746Z,16.60
2022-10-10T19:13:29.290Z,16.50
2022-10-10T19:16:14.680Z,16.50
2022-10-10T19:19:01.304Z,16.40
2022-10-10T19:21:48.051Z,16.30
2022-10-10T19:24:33.831Z,18.10
2022-10-10T19:27:19.384Z,16.20
2022-10-10T19:30:05.174Z,16.20
2022-10-10T19:32:50.722Z,16.20
2022-10-10T19:35:41.739Z,16.10
2022-10-10T19:38:28.038Z,16.10
2022-10-10T19:41:14.642Z,16.10
2022-10-10T19:44:02.249Z,16.40
2022-10-10T19:46:47.430Z,17.80
2022-10-10T19:49:33.049Z,16.10
2022-10-10T19:52:18.401Z,16.10
2022-10-10T19:55:04.018Z,16.20
2022-10-10T19:57:49.227Z,16.20
2022-10-10T20:00:37.460Z,16.60
2022-10-10T20:03:23.523Z,16.10
2022-10-10T20:06:09.099Z,16.10
2022-10-10T20:08:54.751Z,16.80
2022-10-10T20:11:40.629Z,16.00
2022-10-10T20:14:25.905Z,15.90
2022-10-10T20:17:11.443Z,15.90
2022-10-10T20:19:57.155Z,15.80
2022-10-10T20:22:44.574Z,15.70
2022-10-10T20:25:29.837Z,15.80
2022-10-10T20:28:17.611Z,15.50
2022-10-10T20:31:03.280Z,15.60
2022-10-10T20:33:50.301Z,15.60
2022-10-10T20:36:36.181Z,15.60
2022-10-10T20:39:21.347Z,15.50
2022-10-10T20:42:06.886Z,15.50
2022-10-10T20:44:52.362Z,15.40
2022-10-10T20:47:37.792Z,15.40
2022-10-10T20:50:23.362Z,15.40
2022-10-10T20:53:08.858Z,15.30
2022-10-10T20:55:54.623Z,16.20
2022-10-10T20:58:40.618Z,15.30
2022-10-10T21:01:27.525Z,15.30
2022-10-10T21:04:14.211Z,15.40
2022-10-10T21:06:59.357Z,15.40
2022-10-10T21:09:44.917Z,15.50
2022-10-10T21:12:30.382Z,15.20
2022-10-10T21:15:16.107Z,15.10
2022-10-10T21:18:01.678Z,15.10
2022-10-10T21:20:46.882Z,15.50
2022-10-10T21:23:41.340Z,16.10
2022-10-10T21:26:28.911Z,15.30
2022-10-10T21:29:14.925Z,15.20
2022-10-10T21:32:00.393Z,15.40
2022-10-10T21:34:45.991Z,15.30
2022-10-10T21:37:32.775Z,15.40
2022-10-10T21:40:18.167Z,15.60
2022-10-10T21:43:03.662Z,15.60
2022-10-10T21:45:48.890Z,15.60
2022-10-10T21:48:35.067Z,15.70
2022-10-10T21:51:21.803Z,15.70
2022-10-10T21:54:08.141Z,15.70
2022-10-10T21:56:53.403Z,15.70
2022-10-10T21:59:38.985Z,16.00
2022-10-10T22:02:24.494Z,15.60
2022-10-10T22:05:13.748Z,15.50
2022-10-10T22:07:59.134Z,15.40
2022-10-10T22:10:45.541Z,15.30
2022-10-10T22:13:31.232Z,15.60
2022-10-10T22:16:17.877Z,15.20
2022-10-10T22:19:04.385Z,15.60
2022-10-10T22:21:50.003Z,15.30
2022-10-10T22:24:36.411Z,15.40
2022-10-10T22:27:21.849Z,15.30
2022-10-10T22:30:09.290Z,15.30
2022-10-10T22:32:54.873Z,15.30
2022-10-10T22:35:40.968Z,15.30
2022-10-10T22:38:26.946Z,15.10
2022-10-10T22:41:13.212Z,14.90
2022-10-10T22:43:58.514Z,15.30
2022-10-10T22:46:43.818Z,15.00
2022-10-10T22:49:29.435Z,15.20
2022-10-10T22:52:15.168Z,15.30
2022-10-10T22:55:00.633Z,14.90
2022-10-10T22:57:46.421Z,14.90
2022-10-10T23:00:31.721Z,14.60
2022-10-10T23:03:17.266Z,14.50
2022-10-10T23:06:03.460Z,14.50
2022-10-10T23:08:49.182Z,14.60
2022-10-10T23:11:34.846Z,14.60
2022-10-10T23:14:20.301Z,14.50
2022-10-10T23:17:05.947Z,14.60
2022-10-10T23:19:51.678Z,14.50
2022-10-10T23:22:37.041Z,14.30
2022-10-10T23:25:23.115Z,14.30
2022-10-10T23:28:08.732Z,14.30
2022-10-10T23:30:54.119Z,14.30
2022-10-10T23:33:39.785Z,15.00
2022-10-10T23:36:25.100Z,14.70
2022-10-10T23:39:10.367Z,14.00
2022-10-10T23:41:55.848Z,14.70
2022-10-10T23:44:41.467Z,13.90
2022-10-10T23:47:27.072Z,13.90
2022-10-10T23:50:12.797Z,14.60
2022-10-10T23:52:58.357Z,14.70
2022-10-10T23:55:43.984Z,14.50
2022-10-10T23:58:29.394Z,14.00
